Main page
METAR-TAF:

METAR-TAF

Airports :

Alpena County Regional Airport

Alpena, Michigan, United States

latitude: 45-04-18N, longitude: 083-33-52W, elevation: 210 m

Current weather observation

The report was made 41 minutes ago, at 16:54 UTC
Wind 5 kt from the North/Northeast
Temperature 19°C
Humidity 88%
Pressure 1028 hPa
Visibility: 16.1 km
Overcast at a height of 900 ft

METAR: KAPN 201654Z 03005KT 10SM OVC009 19/17 A3037 RMK AO2 SLP282 T01940167

Time: 13:35 (17:35 UTC)

Forecast

The report was made 34 minutes ago, at 17:01 UTC
Forecast valid from 20 at 17 UTC to 21 at 12 UTC
Wind 7 kt from the Northeast
Visibility: 10 km
Overcast at a height of 1000 ft
showers in vicinity
From 20 at 1800 UTC
Wind 8 kt from the Northeast
Visibility: 10 km
Broken clouds at a height of 4000 ft
From 21 at 0000 UTC
Wind 3 kt from variable directions
Visibility: 10 km
Scattered clouds at a height of 6000 ft

TAF: KAPN 201701Z 2017/2112 04007KT P6SM VCSH OVC010 FM201800 05008KT P6SM BKN040 FM210000 VRB03KT P6SM SCT060

Weather observations and forecasts of more than 4000 airports (METAR and TAF reports).

The available stations are represented by yellow and red dots on the map.

Hover mouse over dot to see the name of the station.

Then click to see weather observations and forecasts.

To change the map : click on the green buttons with a black cross to zoom in, on the green button with a dash to zoom out, or on the green arrows for adjacent maps.


METAR-TAF: